Time;durP1;ratioP1;P1;durP2;ratioP2;P2;SDS_P1;SDS_P2;PMS_P1;PMS_P2;Temp;Humidity;BMP_temperature;BMP_pressure;BME280_temperature;BME280_humidity;BME280_pressure;Samples;Min_cycle;Max_cycle;Signal;HPM_P1;HPM_P2
2021/12/19 00:00:09;;;;;;;17.38;8.55;;;;;;;5.43;75.85;101322.41;341929;28;1271;-67
2021/12/19 00:00:21;;;;;;;16.25;8.32;;;;;;;5.46;76.15;101323.31;340629;29;1332;-67
2021/12/19 00:01:00;;;;;;;16.65;8.48;;;;;;;5.52;75.97;101319.97;340859;29;1023;-67
2021/12/19 00:02:37;;;;;;;16.85;9.00;;;;;;;5.59;75.62;101320.09;340367;29;1620;-67
2021/12/19 00:03:06;;;;;;;17.85;8.85;;;;;;;5.58;75.31;101320.06;341141;28;1059;-67
2021/12/19 00:08:27;;;;;;;20.35;9.32;;;;;;;5.30;76.18;101319.63;339964;29;1015;-67
2021/12/19 00:08:50;;;;;;;20.67;9.20;;;;;;;5.18;76.94;101324.59;341179;28;1067;-67
2021/12/19 00:09:03;;;;;;;21.25;9.85;;;;;;;5.14;76.91;101323.69;340899;28;1587;-67
2021/12/19 00:09:15;;;;;;;22.17;10.13;;;;;;;5.15;76.92;101314.22;341044;29;1242;-67
2021/12/19 00:09:28;;;;;;;23.63;10.00;;;;;;;5.15;77.10;101320.28;341192;28;1011;-67
2021/12/19 00:09:40;;;;;;;22.73;9.77;;;;;;;5.18;77.11;101315.16;341170;29;926;-67
2021/12/19 00:09:53;;;;;;;21.77;9.85;;;;;;;5.20;77.09;101320.34;340448;29;2269;-67
2021/12/19 00:10:05;;;;;;;22.25;9.80;;;;;;;5.18;77.25;101315.16;340902;28;1695;-67
2021/12/19 00:10:17;;;;;;;20.58;9.48;;;;;;;5.22;77.04;101315.22;342239;28;1141;-67
2021/12/19 00:10:30;;;;;;;21.48;9.55;;;;;;;5.22;77.38;101317.78;342209;28;1024;-67
2021/12/19 00:10:42;;;;;;;25.23;9.90;;;;;;;5.22;76.96;101315.22;342095;28;1300;-67
2021/12/19 00:10:55;;;;;;;25.90;10.35;;;;;;;5.24;76.99;101323.84;342264;28;1100;-67
2021/12/19 00:11:07;;;;;;;23.88;9.93;;;;;;;5.22;77.13;101316.06;339467;29;1067;-67
2021/12/19 00:11:23;;;;;;;21.83;9.15;;;;;;;5.22;76.94;101321.22;339478;29;1247;-67
2021/12/19 00:11:36;;;;;;;21.55;9.35;;;;;;;5.14;77.72;101315.94;339439;29;1004;-67
2021/12/19 00:11:48;;;;;;;22.58;9.52;;;;;;;5.10;77.06;101321.91;339317;29;1817;-67
2021/12/19 00:12:00;;;;;;;21.77;9.23;;;;;;;5.17;77.17;101317.69;340058;29;1560;-67
2021/12/19 00:12:12;;;;;;;19.30;8.60;;;;;;;5.18;77.24;101320.31;340728;29;1207;-67
2021/12/19 00:12:24;;;;;;;17.90;8.43;;;;;;;5.22;77.48;101315.22;340949;29;1072;-67
2021/12/19 00:12:36;;;;;;;17.80;8.50;;;;;;;5.24;77.25;101318.69;340781;29;1308;-67
2021/12/19 00:12:48;;;;;;;20.13;8.70;;;;;;;5.25;77.12;101317.81;340872;29;1697;-67
2021/12/19 00:13:00;;;;;;;18.95;8.77;;;;;;;5.24;76.95;101323.84;340735;28;1592;-67
2021/12/19 00:13:13;;;;;;;19.00;8.95;;;;;;;5.27;77.32;101318.72;341016;29;1051;-67
2021/12/19 00:13:26;;;;;;;19.55;9.13;;;;;;;5.25;77.18;101326.44;342283;28;1177;-67
2021/12/19 00:13:40;;;;;;;21.45;9.57;;;;;;;5.26;76.85;101317.00;343270;28;1130;-68
2021/12/19 00:13:53;;;;;;;21.70;9.43;;;;;;;5.10;76.64;101315.88;342032;28;1748;-67
2021/12/19 00:14:06;;;;;;;22.30;9.25;;;;;;;5.12;77.39;101320.22;342191;28;1451;-67
2021/12/19 00:14:20;;;;;;;21.20;9.25;;;;;;;5.14;77.25;101318.53;341944;28;1213;-67
2021/12/19 00:14:32;;;;;;;21.50;9.43;;;;;;;5.11;77.31;101323.66;342003;28;1027;-67
2021/12/19 00:14:44;;;;;;;20.42;9.27;;;;;;;5.07;77.05;101326.13;342145;28;1369;-67
2021/12/19 00:14:56;;;;;;;18.25;8.77;;;;;;;5.10;76.86;101321.91;341993;28;1403;-67
2021/12/19 00:15:13;;;;;;;17.95;8.65;;;;;;;5.13;77.15;101321.06;342164;28;1671;-67
2021/12/19 00:15:25;;;;;;;19.30;8.90;;;;;;;5.12;77.17;101320.22;341497;28;1020;-67
2021/12/19 00:15:37;;;;;;;20.85;9.20;;;;;;;5.15;76.71;101319.38;341164;28;1205;-68
2021/12/19 00:15:49;;;;;;;22.23;9.15;;;;;;;5.15;76.62;101319.38;340719;28;1055;-67
2021/12/19 00:16:01;;;;;;;23.10;9.32;;;;;;;5.18;76.59;101322.03;341052;29;1636;-67
2021/12/19 00:16:14;;;;;;;24.67;9.43;;;;;;;5.19;76.47;101324.63;341130;29;1162;-68
2021/12/19 00:16:27;;;;;;;22.17;9.10;;;;;;;5.18;76.96;101315.16;340989;29;1349;-68
2021/12/19 00:16:39;;;;;;;20.85;9.10;;;;;;;5.18;76.90;101320.31;341209;28;1067;-68
2021/12/19 00:16:52;;;;;;;21.30;9.32;;;;;;;5.12;77.17;101317.63;340970;28;1063;-68
2021/12/19 00:17:04;;;;;;;19.70;9.13;;;;;;;5.12;77.22;101320.22;340960;28;1538;-68
2021/12/19 00:17:16;;;;;;;17.67;8.43;;;;;;;5.14;76.91;101318.53;341043;28;1032;-68
2021/12/19 00:17:28;;;;;;;17.67;8.20;;;;;;;5.18;76.95;101315.16;341089;28;1064;-68
2021/12/19 00:17:40;;;;;;;18.48;8.70;;;;;;;5.19;76.82;101319.47;340935;28;1234;-67
2021/12/19 00:17:52;;;;;;;18.25;8.80;;;;;;;5.22;77.32;101310.91;340827;28;1047;-67
2021/12/19 00:18:05;;;;;;;17.80;8.80;;;;;;;5.25;77.08;101317.81;340943;28;1026;-68
2021/12/19 00:18:17;;;;;;;17.42;8.90;;;;;;;5.26;76.65;101317.00;341053;28;1115;-68
2021/12/19 00:18:29;;;;;;;17.65;8.88;;;;;;;5.26;76.54;101317.84;340841;28;1675;-67
2021/12/19 00:18:43;;;;;;;16.73;8.48;;;;;;;5.27;76.65;101318.72;340745;28;1459;-67
2021/12/19 00:18:56;;;;;;;15.75;8.27;;;;;;;5.25;76.55;101320.41;341205;28;1068;-67
2021/12/19 00:19:08;;;;;;;16.17;8.23;;;;;;;5.20;76.55;101318.63;340052;29;1027;-68
2021/12/19 00:19:21;;;;;;;15.50;8.05;;;;;;;5.17;76.64;101321.16;339729;29;1330;-68
2021/12/19 00:19:33;;;;;;;15.15;7.93;;;;;;;5.15;76.43;101319.38;339610;29;1036;-68
2021/12/19 00:19:45;;;;;;;15.73;8.00;;;;;;;5.18;76.53;101314.28;339798;29;1296;-67
2021/12/19 00:19:57;;;;;;;16.70;8.25;;;;;;;5.14;76.92;101313.38;339813;29;1376;-68
2021/12/19 00:20:29;;;;;;;17.88;8.90;;;;;;;5.16;76.99;101319.41;339651;29;1436;-68
2021/12/19 00:21:03;;;;;;;17.75;8.23;;;;;;;5.24;76.86;101323.84;340195;29;2003;-67
2021/12/19 00:21:25;;;;;;;19.08;8.60;;;;;;;5.23;76.95;101315.22;340976;29;1137;-67
2021/12/19 00:21:40;;;;;;;19.80;8.23;;;;;;;5.25;76.87;101320.41;341194;29;1066;-68
2021/12/19 00:21:52;;;;;;;18.77;7.95;;;;;;;5.27;76.72;101318.72;342084;28;874;-67
2021/12/19 00:22:04;;;;;;;18.10;8.18;;;;;;;5.27;76.90;101314.47;341962;28;1163;-67
2021/12/19 00:22:16;;;;;;;18.92;8.82;;;;;;;5.27;76.59;101323.88;342278;28;1098;-67
2021/12/19 00:22:28;;;;;;;19.02;8.93;;;;;;;5.30;77.06;101316.22;342025;28;1251;-67
2021/12/19 00:22:40;;;;;;;18.40;8.70;;;;;;;5.29;76.52;101317.03;341924;28;1203;-67
2021/12/19 00:22:52;;;;;;;17.42;8.45;;;;;;;5.31;76.66;101316.25;342049;28;1260;-68
2021/12/19 00:23:04;;;;;;;20.00;8.50;;;;;;;5.30;76.44;101321.38;341894;28;1070;-67
2021/12/19 00:23:17;;;;;;;22.38;8.73;;;;;;;5.30;76.67;101313.63;342109;28;1039;-67
2021/12/19 00:23:30;;;;;;;22.65;9.20;;;;;;;5.20;76.55;101321.19;342116;28;1605;-68
2021/12/19 00:23:43;;;;;;;21.25;9.38;;;;;;;5.18;76.92;101325.47;342176;28;1297;-67
2021/12/19 00:23:56;;;;;;;19.83;8.90;;;;;;;5.19;76.89;101321.16;341554;28;1027;-67
2021/12/19 00:24:09;;;;;;;19.80;9.07;;;;;;;5.19;77.20;101316.91;340994;28;1329;-67
2021/12/19 00:24:21;;;;;;;19.60;9.13;;;;;;;5.20;77.11;101318.63;340942;28;1303;-67
2021/12/19 00:24:33;;;;;;;19.77;8.82;;;;;;;5.20;76.90;101321.19;339859;29;1023;-67
2021/12/19 00:24:45;;;;;;;19.17;8.50;;;;;;;5.22;76.74;101320.38;339591;29;1068;-67
2021/12/19 00:24:57;;;;;;;19.33;8.52;;;;;;;5.19;76.79;101316.91;339877;29;1082;-67
2021/12/19 00:25:09;;;;;;;19.45;8.82;;;;;;;5.25;76.56;101315.25;340000;29;1205;-67
2021/12/19 00:25:21;;;;;;;19.50;9.05;;;;;;;5.27;76.76;101319.63;339622;29;1111;-67
2021/12/19 00:25:33;;;;;;;17.85;8.98;;;;;;;5.30;76.25;101313.63;339899;29;1037;-67
2021/12/19 00:25:45;;;;;;;18.85;9.40;;;;;;;5.33;76.48;101316.22;339606;29;1093;-67
2021/12/19 00:25:58;;;;;;;20.58;9.65;;;;;;;5.33;76.71;101316.22;339912;29;1059;-68
2021/12/19 00:26:10;;;;;;;21.35;9.82;;;;;;;5.29;76.79;101322.19;339791;29;1034;-67
2021/12/19 00:26:22;;;;;;;20.73;9.05;;;;;;;5.24;76.29;101318.69;339656;29;1270;-67
2021/12/19 00:26:34;;;;;;;20.20;8.73;;;;;;;5.17;76.40;101318.59;339928;29;1299;-67
2021/12/19 00:26:47;;;;;;;19.73;8.98;;;;;;;5.02;76.87;101318.31;339874;29;951;-67
2021/12/19 00:26:59;;;;;;;20.90;9.25;;;;;;;5.01;77.47;101319.19;339675;29;1032;-67
2021/12/19 00:27:11;;;;;;;22.15;9.15;;;;;;;4.95;77.47;101316.47;339817;29;1182;-67
2021/12/19 00:27:23;;;;;;;19.17;8.85;;;;;;;4.93;77.62;101318.16;339772;29;1095;-67
2021/12/19 00:27:35;;;;;;;16.55;8.15;;;;;;;4.85;77.31;101314.56;340068;29;1095;-67
2021/12/19 00:27:47;;;;;;;16.08;8.38;;;;;;;4.86;77.76;101317.19;339793;29;1317;-68
2021/12/19 00:27:59;;;;;;;17.48;9.13;;;;;;;4.88;77.77;101314.66;340812;29;1782;-67
2021/12/19 00:28:11;;;;;;;16.98;8.98;;;;;;;4.90;78.08;101323.28;341062;28;1099;-67
2021/12/19 00:28:24;;;;;;;16.63;8.50;;;;;;;4.98;77.85;101319.13;341014;28;1421;-67
2021/12/19 00:28:36;;;;;;;17.33;8.80;;;;;;;5.01;77.21;101314.03;341029;28;1341;-67
2021/12/19 00:28:50;;;;;;;16.50;8.35;;;;;;;5.05;77.33;101313.25;341185;28;1019;-67
2021/12/19 00:29:03;;;;;;;15.55;7.80;;;;;;;5.08;77.24;101318.44;341174;28;1571;-67
2021/12/19 00:29:15;;;;;;;16.77;8.07;;;;;;;4.99;77.00;101313.13;341229;28;1052;-68
2021/12/19 00:29:28;;;;;;;18.90;8.80;;;;;;;4.77;78.22;101311.91;340769;29;1570;-67
2021/12/19 00:29:39;;;;;;;18.83;8.82;;;;;;;4.78;78.18;101308.47;340899;28;1064;-67
2021/12/19 00:29:51;;;;;;;16.90;8.50;;;;;;;4.84;78.20;101302.56;341059;28;1043;-67
2021/12/19 00:30:04;;;;;;;17.65;8.52;;;;;;;4.93;78.04;101313.00;340803;28;1700;-67
2021/12/19 00:30:16;;;;;;;18.20;8.63;;;;;;;4.93;77.90;101310.44;341176;28;1062;-67
2021/12/19 00:30:28;;;;;;;20.00;8.85;;;;;;;4.91;77.74;101305.28;341282;28;1062;-67
2021/12/19 00:30:41;;;;;;;20.85;8.80;;;;;;;4.92;77.74;101311.28;341483;28;1086;-67
2021/12/19 00:30:53;;;;;;;20.05;8.68;;;;;;;4.96;77.64;101313.06;341441;28;1053;-67
2021/12/19 00:31:05;;;;;;;18.52;8.77;;;;;;;5.01;77.58;101308.88;340092;29;2148;-67
2021/12/19 00:31:17;;;;;;;16.98;8.73;;;;;;;5.05;77.75;101307.19;340036;29;1081;-67
2021/12/19 00:31:31;;;;;;;17.77;8.90;;;;;;;5.05;77.46;101308.09;340128;29;1064;-67
2021/12/19 00:31:45;;;;;;;18.63;8.85;;;;;;;5.11;77.29;101304.72;339884;29;1321;-67
2021/12/19 00:31:57;;;;;;;21.17;8.85;;;;;;;5.14;76.93;101307.34;340300;29;1260;-67
2021/12/19 00:32:09;;;;;;;22.45;8.98;;;;;;;5.14;76.50;101310.78;341296;28;1020;-68
2021/12/19 00:32:22;;;;;;;21.80;8.98;;;;;;;5.19;76.79;101308.28;341449;28;1243;-67
2021/12/19 00:32:34;;;;;;;18.63;9.07;;;;;;;5.20;76.65;101307.44;341238;28;1010;-67
2021/12/19 00:32:46;;;;;;;16.88;8.82;;;;;;;5.20;76.79;101308.31;341377;28;1299;-67
2021/12/19 00:32:58;;;;;;;16.13;8.52;;;;;;;5.26;76.99;101298.94;341356;28;1088;-67
2021/12/19 00:33:11;;;;;;;16.33;8.35;;;;;;;5.29;76.45;101306.72;341426;28;1106;-67
2021/12/19 00:33:23;;;;;;;18.15;8.70;;;;;;;5.29;77.08;101306.72;341440;28;1030;-67
2021/12/19 00:33:37;;;;;;;18.42;8.57;;;;;;;5.30;76.94;101300.72;341323;28;1300;-67
2021/12/19 00:33:49;;;;;;;17.52;8.52;;;;;;;5.32;76.48;101304.19;341358;28;1035;-67
2021/12/19 00:34:01;;;;;;;17.60;8.70;;;;;;;5.37;76.10;101305.13;341272;28;1098;-67
2021/12/19 00:34:15;;;;;;;17.38;8.68;;;;;;;5.39;75.93;101308.59;341067;28;1057;-67
2021/12/19 00:34:27;;;;;;;17.30;8.57;;;;;;;5.36;75.97;101308.56;339651;29;1790;-67
2021/12/19 00:34:39;;;;;;;18.60;8.57;;;;;;;5.35;76.23;101310.28;340574;28;1982;-67
2021/12/19 00:34:51;;;;;;;17.27;8.20;;;;;;;5.33;75.99;101308.50;341467;28;1227;-67
2021/12/19 00:35:03;;;;;;;16.15;8.25;;;;;;;5.29;75.93;101306.72;341379;28;1203;-67
2021/12/19 00:35:16;;;;;;;15.82;8.10;;;;;;;5.25;76.09;101305.81;342268;28;1183;-67
2021/12/19 00:35:28;;;;;;;16.60;8.75;;;;;;;5.25;76.47;101302.34;342126;28;1311;-67
2021/12/19 00:35:40;;;;;;;18.52;8.93;;;;;;;5.22;75.94;101304.91;342362;28;1004;-67
2021/12/19 00:35:52;;;;;;;17.92;8.70;;;;;;;5.16;76.71;101311.69;342296;28;1073;-67
2021/12/19 00:36:06;;;;;;;16.50;8.23;;;;;;;5.18;76.60;101307.41;342197;28;1757;-67
2021/12/19 00:36:18;;;;;;;15.05;7.82;;;;;;;5.14;76.56;101300.47;342385;28;1031;-67
2021/12/19 00:36:30;;;;;;;16.65;7.93;;;;;;;5.16;76.86;101306.53;342290;28;1044;-67
2021/12/19 00:36:43;;;;;;;19.38;8.30;;;;;;;5.19;76.42;101306.59;342261;28;947;-67
2021/12/19 00:36:55;;;;;;;18.98;8.35;;;;;;;5.23;76.33;101301.47;342269;28;1541;-67
2021/12/19 00:37:07;;;;;;;17.88;8.38;;;;;;;5.25;76.75;101307.50;341780;28;2151;-67
2021/12/19 00:37:22;;;;;;;18.00;8.40;;;;;;;5.27;76.37;101295.50;341839;28;1058;-67
2021/12/19 00:37:34;;;;;;;17.55;8.13;;;;;;;5.27;76.27;101292.94;341161;29;1250;-67
2021/12/19 00:37:46;;;;;;;19.48;8.57;;;;;;;5.30;76.34;101298.16;342457;28;1039;-67
2021/12/19 00:37:58;;;;;;;19.70;9.00;;;;;;;5.26;76.42;101294.66;342451;28;1631;-67
2021/12/19 00:38:10;;;;;;;19.42;9.23;;;;;;;5.25;76.45;101300.66;342377;28;1068;-67
2021/12/19 00:38:22;;;;;;;18.67;9.13;;;;;;;5.24;76.41;101298.91;342295;28;1257;-67
2021/12/19 00:38:34;;;;;;;19.63;9.23;;;;;;;5.25;76.42;101294.63;341648;28;1800;-67
2021/12/19 00:38:47;;;;;;;19.67;8.65;;;;;;;5.27;76.48;101298.09;342229;28;1726;-67
2021/12/19 00:38:59;;;;;;;19.30;8.55;;;;;;;5.27;76.44;101298.09;342245;28;1227;-68
2021/12/19 00:39:11;;;;;;;18.73;8.60;;;;;;;5.30;76.40;101299.00;340954;29;2260;-67
2021/12/19 00:39:23;;;;;;;18.50;8.73;;;;;;;5.29;76.43;101293.81;341316;29;1007;-67
2021/12/19 00:39:35;;;;;;;18.38;8.35;;;;;;;5.26;76.07;101297.22;340971;29;1018;-67
2021/12/19 00:39:48;;;;;;;19.05;8.60;;;;;;;5.30;76.57;101295.56;340930;29;1141;-67
2021/12/19 00:40:01;;;;;;;17.45;8.48;;;;;;;5.34;75.93;101295.63;340453;29;1622;-67
2021/12/19 00:40:13;;;;;;;17.00;8.45;;;;;;;5.37;76.51;101294.81;341049;29;1149;-67
2021/12/19 00:40:25;;;;;;;18.52;8.77;;;;;;;5.39;76.70;101293.13;340953;29;1055;-67
2021/12/19 00:40:37;;;;;;;18.45;8.77;;;;;;;5.39;76.39;101293.13;340907;29;1821;-67
2021/12/19 00:40:50;;;;;;;18.08;8.32;;;;;;;5.40;76.19;101295.72;341066;28;1923;-67
2021/12/19 00:41:04;;;;;;;17.95;8.20;;;;;;;5.43;76.36;101297.47;340995;28;1895;-67
2021/12/19 00:41:16;;;;;;;17.95;8.32;;;;;;;5.45;76.33;101293.22;342234;28;1060;-67
2021/12/19 00:41:28;;;;;;;17.55;8.32;;;;;;;5.44;75.72;101298.38;342417;28;1321;-68
2021/12/19 00:42:07;;;;;;;17.17;7.63;;;;;;;5.43;75.33;101294.91;342951;28;1554;-67
2021/12/19 00:42:31;;;;;;;15.93;7.90;;;;;;;5.40;75.60;101293.16;344934;28;1429;-67
2021/12/19 00:42:50;;;;;;;17.13;8.52;;;;;;;5.40;75.88;101289.72;344377;28;1903;-68
2021/12/19 00:43:09;;;;;;;16.95;8.57;;;;;;;5.41;75.40;101296.59;345009;28;1586;-68
2021/12/19 00:43:33;;;;;;;15.13;8.23;;;;;;;5.45;75.42;101297.50;345453;28;1046;-68
2021/12/19 00:43:53;;;;;;;17.65;8.45;;;;;;;5.40;75.86;101297.44;344173;28;1836;-67
2021/12/19 00:44:08;;;;;;;21.95;9.13;;;;;;;5.41;75.67;101296.59;343612;28;1313;-68
2021/12/19 00:44:24;;;;;;;21.02;8.88;;;;;;;5.41;75.96;101299.16;343374;28;1055;-68
2021/12/19 00:44:37;;;;;;;17.95;8.55;;;;;;;5.38;75.67;101296.56;343700;28;1195;-68
2021/12/19 00:44:52;;;;;;;17.40;8.60;;;;;;;5.40;75.81;101294.88;342337;28;1093;-67
2021/12/19 00:45:20;;;;;;;18.30;8.63;;;;;;;5.39;76.42;101298.28;343305;28;1723;-67
2021/12/19 00:45:35;;;;;;;18.52;8.68;;;;;;;5.38;75.62;101293.97;342281;28;1070;-68
2021/12/19 00:45:49;;;;;;;17.80;8.50;;;;;;;5.42;75.35;101298.34;342268;28;1079;-67
2021/12/19 00:46:07;;;;;;;17.98;8.85;;;;;;;5.42;75.16;101292.31;342896;28;1636;-67
2021/12/19 00:46:23;;;;;;;17.05;8.65;;;;;;;5.41;75.86;101301.75;343408;28;2085;-68
2021/12/19 00:46:50;;;;;;;16.95;8.40;;;;;;;5.42;75.50;101297.47;344592;28;1787;-67
2021/12/19 00:47:07;;;;;;;22.33;9.07;;;;;;;5.42;75.28;101298.34;345195;28;1716;-68
2021/12/19 00:47:19;;;;;;;19.50;8.85;;;;;;;5.43;75.97;101294.91;345311;28;1087;-68
2021/12/19 00:47:32;;;;;;;16.38;8.25;;;;;;;5.45;75.66;101292.34;345418;28;1070;-68
2021/12/19 00:47:44;;;;;;;18.17;8.48;;;;;;;5.42;75.76;101295.75;345452;28;1090;-67
2021/12/19 00:47:56;;;;;;;21.40;9.00;;;;;;;5.39;76.13;101293.13;345246;28;1649;-68
2021/12/19 00:48:09;;;;;;;20.27;8.68;;;;;;;5.35;76.24;101296.50;344680;28;1436;-68
2021/12/19 00:48:21;;;;;;;18.77;8.65;;;;;;;5.32;76.07;101296.47;344649;28;1386;-67
2021/12/19 00:48:38;;;;;;;19.60;8.73;;;;;;;5.23;76.40;101294.59;344004;28;2171;-68
2021/12/19 00:48:52;;;;;;;20.73;8.77;;;;;;;5.23;76.63;101298.88;345347;28;1914;-68
2021/12/19 00:49:04;;;;;;;15.85;8.05;;;;;;;5.24;76.55;101292.91;345206;28;1656;-68
2021/12/19 00:49:18;;;;;;;16.27;7.97;;;;;;;5.30;76.72;101293.00;345180;28;1935;-68
2021/12/19 00:49:30;;;;;;;17.85;7.95;;;;;;;5.27;76.68;101292.94;345037;28;1262;-68
2021/12/19 00:49:42;;;;;;;19.20;8.25;;;;;;;5.24;76.27;101292.91;345355;28;1207;-68
2021/12/19 00:49:55;;;;;;;18.38;8.48;;;;;;;5.22;76.50;101294.59;345129;28;1289;-68
2021/12/19 00:50:27;;;;;;;15.75;8.27;;;;;;;5.27;76.11;101298.09;344567;28;1539;-68
2021/12/19 00:50:39;;;;;;;15.70;8.10;;;;;;;5.29;76.34;101291.25;345020;28;2147;-68
2021/12/19 00:50:51;;;;;;;16.23;7.82;;;;;;;5.30;75.91;101290.41;343831;28;1576;-67
2021/12/19 00:51:05;;;;;;;17.23;7.75;;;;;;;5.32;75.76;101297.31;343502;28;1467;-67
2021/12/19 00:51:22;;;;;;;16.92;7.78;;;;;;;5.32;75.98;101291.31;343751;28;1375;-68
2021/12/19 00:51:34;;;;;;;18.70;8.82;;;;;;;5.33;76.02;101291.34;343459;28;1607;-68
2021/12/19 00:51:46;;;;;;;19.20;8.70;;;;;;;5.32;76.21;101291.31;343701;28;1343;-67
2021/12/19 00:51:58;;;;;;;17.75;7.88;;;;;;;5.20;75.61;101286.81;343616;28;1882;-68
2021/12/19 00:52:10;;;;;;;15.32;7.35;;;;;;;5.16;75.76;101285.91;343432;28;1012;-68
2021/12/19 00:52:22;;;;;;;14.73;7.63;;;;;;;5.10;75.93;101285.81;343499;28;1019;-68
2021/12/19 00:52:34;;;;;;;15.00;7.60;;;;;;;5.11;76.31;101290.13;343386;28;1048;-67
2021/12/19 00:52:46;;;;;;;15.35;8.00;;;;;;;5.14;76.25;101285.00;344594;28;1134;-67
2021/12/19 00:52:59;;;;;;;14.60;7.90;;;;;;;5.18;76.45;101286.78;343380;28;1492;-68
2021/12/19 00:53:11;;;;;;;15.45;7.90;;;;;;;5.22;76.37;101289.44;344013;28;1078;-67
2021/12/19 00:53:23;;;;;;;14.85;7.55;;;;;;;5.20;76.34;101286.81;343973;28;1055;-68
2021/12/19 00:53:35;;;;;;;15.32;8.15;;;;;;;5.18;76.73;101284.22;343961;28;1197;-67
2021/12/19 00:53:48;;;;;;;16.73;8.23;;;;;;;5.20;76.44;101287.69;343785;28;1208;-67
2021/12/19 00:54:00;;;;;;;17.50;8.25;;;;;;;5.23;76.24;101289.44;344442;28;1423;-67
2021/12/19 00:54:14;;;;;;;18.13;8.35;;;;;;;5.25;76.41;101279.16;345415;28;1171;-68
2021/12/19 00:54:26;;;;;;;19.10;8.10;;;;;;;5.25;76.21;101274.88;345103;28;1236;-66
2021/12/19 00:54:38;;;;;;;17.08;7.80;;;;;;;5.29;76.34;101281.81;345023;28;1136;-67
2021/12/19 00:54:50;;;;;;;15.93;7.90;;;;;;;5.33;76.14;101285.28;345259;28;1074;-67
2021/12/19 00:55:03;;;;;;;16.25;8.02;;;;;;;5.33;75.97;101282.72;345226;28;1310;-67
2021/12/19 00:55:21;;;;;;;15.95;8.32;;;;;;;5.32;75.42;101288.72;345275;28;1166;-68
2021/12/19 00:55:33;;;;;;;17.50;8.05;;;;;;;5.29;76.01;101281.81;345548;28;961;-67
2021/12/19 00:55:45;;;;;;;17.25;8.00;;;;;;;5.29;75.99;101278.34;344083;28;2143;-66
2021/12/19 00:55:57;;;;;;;14.32;7.97;;;;;;;5.31;75.89;101280.13;345222;28;1906;-67
2021/12/19 00:56:10;;;;;;;14.27;7.72;;;;;;;5.33;76.22;101287.88;345116;28;1292;-66
2021/12/19 00:56:23;;;;;;;16.30;8.07;;;;;;;5.34;76.04;101285.31;345260;28;1908;-68
2021/12/19 00:56:39;;;;;;;17.63;8.35;;;;;;;5.32;75.92;101286.16;345445;28;1234;-67
2021/12/19 00:56:51;;;;;;;18.80;8.68;;;;;;;5.32;76.44;101281.84;345386;28;1035;-68
2021/12/19 00:57:04;;;;;;;17.10;8.40;;;;;;;5.30;76.21;101285.25;344886;28;1606;-67
2021/12/19 00:57:16;;;;;;;16.70;8.15;;;;;;;5.17;76.98;101287.66;343968;28;1024;-66
2021/12/19 00:57:28;;;;;;;17.20;8.20;;;;;;;5.22;76.45;101289.44;344102;28;1125;-67
2021/12/19 00:57:40;;;;;;;17.27;8.38;;;;;;;5.17;76.47;101282.50;343739;28;1581;-67
2021/12/19 00:57:52;;;;;;;17.08;8.48;;;;;;;5.17;76.40;101282.50;343693;28;2061;-68
2021/12/19 00:58:04;;;;;;;17.25;8.15;;;;;;;5.22;76.13;101279.13;345010;28;1650;-68
2021/12/19 00:58:17;;;;;;;15.88;7.47;;;;;;;5.18;76.03;101286.78;345099;28;1247;-67
2021/12/19 00:58:29;;;;;;;16.70;7.93;;;;;;;5.19;76.54;101285.97;345387;28;1130;-66
2021/12/19 00:58:43;;;;;;;16.80;8.18;;;;;;;5.17;76.02;101282.50;345081;28;1103;-67
2021/12/19 00:58:55;;;;;;;17.38;8.23;;;;;;;5.22;76.10;101286.84;345150;28;1621;-66
2021/12/19 00:59:09;;;;;;;16.35;8.05;;;;;;;5.22;76.26;101282.56;343780;28;1179;-67
2021/12/19 00:59:25;;;;;;;17.60;7.95;;;;;;;5.27;76.30;101282.63;343870;28;1685;-68
2021/12/19 00:59:37;;;;;;;17.40;7.57;;;;;;;5.27;76.01;101280.03;345453;28;1327;-67
2021/12/19 00:59:49;;;;;;;17.70;7.50;;;;;;;5.28;76.65;101284.38;344881;28;2040;-68
2021/12/19 01:00:03;;;;;;;19.13;8.15;;;;;;;5.28;76.66;101279.22;344897;28;1567;-67
2021/12/19 01:00:18;;;;;;;19.95;8.45;;;;;;;5.29;76.53;101286.09;345083;28;1031;-68
2021/12/19 01:00:34;;;;;;;17.23;8.05;;;;;;;5.34;76.21;101274.16;344812;28;1819;-68
2021/12/19 01:00:46;;;;;;;15.27;7.75;;;;;;;5.36;76.20;101280.19;345019;28;1031;-68
2021/12/19 01:00:59;;;;;;;16.88;8.05;;;;;;;5.25;76.41;101274.00;344957;28;1806;-68
2021/12/19 01:01:14;;;;;;;19.98;8.82;;;;;;;5.23;76.48;101276.53;344978;28;1092;-67
2021/12/19 01:01:26;;;;;;;19.13;8.57;;;;;;;5.23;76.23;101278.25;345014;28;1145;-66
2021/12/19 01:01:38;;;;;;;17.63;7.93;;;;;;;5.23;76.06;101276.53;345151;28;1042;-67
2021/12/19 01:01:50;;;;;;;19.50;8.25;;;;;;;5.19;75.99;101275.66;343531;28;1863;-67
2021/12/19 01:02:03;;;;;;;18.08;8.32;;;;;;;5.25;76.09;101279.16;343689;28;1694;-68
2021/12/19 01:02:16;;;;;;;16.38;7.97;;;;;;;5.24;76.09;101277.44;343751;28;1319;-66
2021/12/19 01:02:28;;;;;;;16.40;8.05;;;;;;;5.24;76.38;101267.97;342641;28;1079;-68
2021/12/19 01:02:41;;;;;;;19.02;8.40;;;;;;;5.27;76.87;101278.34;343798;28;1139;-68
2021/12/19 01:02:57;;;;;;;20.20;8.70;;;;;;;5.22;76.55;101272.25;343505;28;991;-67
2021/12/19 01:03:10;;;;;;;19.20;8.70;;;;;;;5.20;76.50;101272.22;343487;28;1200;-67
2021/12/19 01:03:22;;;;;;;18.60;8.20;;;;;;;5.24;76.80;101267.97;343544;28;1353;-68
2021/12/19 01:03:35;;;;;;;18.20;8.23;;;;;;;5.19;76.60;101275.66;343772;28;1271;-68
2021/12/19 01:03:48;;;;;;;17.02;8.30;;;;;;;5.20;76.30;101277.38;343685;28;1099;-68
2021/12/19 01:04:01;;;;;;;18.48;8.60;;;;;;;5.23;76.54;101278.25;344962;28;1090;-68
2021/12/19 01:04:16;;;;;;;18.58;8.50;;;;;;;5.22;76.36;101271.38;344772;28;971;-67
2021/12/19 01:04:29;;;;;;;16.67;7.95;;;;;;;5.23;76.36;101270.53;344814;28;1983;-68
2021/12/19 01:04:41;;;;;;;15.50;7.57;;;;;;;5.20;75.74;101274.78;345041;28;1199;-67
2021/12/19 01:04:53;;;;;;;14.93;7.60;;;;;;;5.25;76.55;101268.84;345028;28;1069;-68
2021/12/19 01:05:06;;;;;;;16.38;7.90;;;;;;;5.25;76.22;101268.84;343847;28;1067;-68
2021/12/19 01:05:19;;;;;;;17.85;8.10;;;;;;;5.19;76.49;101275.66;343433;28;1055;-67
2021/12/19 01:05:35;;;;;;;18.52;8.07;;;;;;;5.19;76.66;101270.50;343348;28;907;-68
2021/12/19 01:05:48;;;;;;;18.42;8.23;;;;;;;5.22;75.95;101268.81;343582;28;1206;-67
2021/12/19 01:06:00;;;;;;;17.75;8.13;;;;;;;5.26;76.38;101270.59;343346;28;1162;-68
2021/12/19 01:06:16;;;;;;;16.85;8.07;;;;;;;5.25;75.63;101272.31;343726;28;1889;-67
2021/12/19 01:06:29;;;;;;;17.33;8.40;;;;;;;5.25;75.87;101269.72;342147;28;985;-68
2021/12/19 01:06:43;;;;;;;19.52;8.57;;;;;;;5.25;76.19;101263.69;342214;28;1299;-67
2021/12/19 01:07:00;;;;;;;20.27;8.57;;;;;;;5.29;75.81;101270.63;343643;28;1672;-66
2021/12/19 01:07:12;;;;;;;17.00;8.00;;;;;;;5.29;76.17;101268.94;344123;28;1070;-68
2021/12/19 01:07:24;;;;;;;16.23;8.02;;;;;;;5.31;76.09;101268.94;343892;28;1058;-67
2021/12/19 01:07:36;;;;;;;16.17;8.10;;;;;;;5.27;75.74;101268.03;343834;28;1709;-68
2021/12/19 01:07:48;;;;;;;15.50;8.07;;;;;;;5.28;76.02;101267.19;344179;28;782;-66
2021/12/19 01:08:02;;;;;;;14.35;7.80;;;;;;;5.30;75.50;101268.06;344537;28;1450;-66
2021/12/19 01:08:14;;;;;;;14.80;7.78;;;;;;;5.30;76.06;101273.22;344924;28;1340;-66
2021/12/19 01:08:26;;;;;;;15.75;8.05;;;;;;;5.31;75.54;101274.09;345378;28;1089;-66
2021/12/19 01:08:38;;;;;;;15.45;7.85;;;;;;;5.31;75.41;101272.41;345177;28;1167;-66
2021/12/19 01:08:50;;;;;;;14.95;7.88;;;;;;;5.28;75.88;101274.06;345072;28;2137;-66
2021/12/19 01:09:04;;;;;;;14.48;7.70;;;;;;;5.31;75.84;101269.81;345880;28;1522;-66
2021/12/19 01:09:16;;;;;;;15.13;7.47;;;;;;;5.31;75.26;101274.09;346502;28;1311;-66
2021/12/19 01:09:30;;;;;;;15.05;7.10;;;;;;;5.32;75.67;101265.53;346139;28;1030;-66
2021/12/19 01:09:42;;;;;;;16.17;7.57;;;;;;;5.33;75.16;101268.13;345277;28;1191;-66
2021/12/19 01:09:54;;;;;;;15.85;7.80;;;;;;;5.34;75.22;101274.16;344602;28;1576;-66
2021/12/19 01:10:08;;;;;;;16.10;7.82;;;;;;;5.35;75.59;101265.56;343752;28;1067;-66
2021/12/19 01:10:20;;;;;;;17.05;8.02;;;;;;;5.35;75.20;101269.03;344088;28;1257;-66
2021/12/19 01:10:33;;;;;;;17.50;8.07;;;;;;;5.34;74.85;101269.84;343403;28;1070;-66
2021/12/19 01:10:46;;;;;;;16.05;7.68;;;;;;;5.35;75.29;101271.59;343727;28;1183;-66
2021/12/19 01:10:59;;;;;;;14.85;7.32;;;;;;;5.35;75.61;101270.72;343887;28;1407;-63